Аэропорт: Остафьево. Москва

ICAO: UUMO

METAR:
2019/03/24 18:00
UUMO 241800Z 28003MPS 9999 SCT008 BKN030 01/01 Q1006 R26/290250 NOSIG RMK QFE739/0986
METAR:
Информация по данной станции не доступна